Saugus, MA (01906)

10:22 PM EDT on May 24, 2015 (GMT -0400)
East Side Melrose | | Change Station
CLOSE
Current Station
Personal Weather Station
Location: Melrose, MA
Elevation: 115 ft
Nearby Weather Stations

Elev 115 ft 42.46 °N, 71.05 °W | Updated 16 seconds ago

Mostly Cloudy
Mostly Cloudy
67.6 °F
Feels Like 67.6 °F
N
6.8
Wind Variable Wind from WSW
Gusts 12.7 mph

Today
High -- | Low -- °F
--% Chance of Precip.
Yesterday
High -- | Low -- °F
Precip. -- in
5:14 AM 8:07 PM
Waxing Crescent, 44% visible
Pressure 30.22 in
Visibility 10.0 miles
Clouds Overcast 25000 ft
Dew Point 48 °F
Humidity 50%
Rainfall 0.00 in
Snow Depth Not available.
UV 0 out of 12
Pollen 10.80 out of 12
Air Quality Not available.
Flu Activity Local Activity
METAR KBOS 250154Z 22013KT 10SM OVC250 20/08 A3021 RMK AO2 SLP231 T02000083

More Conditions Fewer Conditions

Pressure 30.22 in
Visibility 10.0 miles
Clouds Overcast 25000 ft
Dew Point 48 °F
Humidity 50%
Rainfall 0.00 in
Snow Depth Not available.
UV 0 out of 12
Pollen 10.80 out of 12
Air Quality Not available.
Flu Activity Local Activity
METAR KBOS 250154Z 22013KT 10SM OVC250 20/08 A3021 RMK AO2 SLP231 T02000083

More Conditions Fewer Conditions

10-Day Weather Forecast

Almanac

Astronomy

May. 24, 2015 Rise Set
Actual Time
Civil Twilight
Nautical Twilight
Astronomical Twilight
Moon
Length of Visible Light
Length of Day
Tomorrow will be .
, % of the Moon is Illuminated

Today's Extremes

State Highs State Lows

Community

WunderPhotos

Upload Photos

1,823,923 photos uploaded!

WunderBlogs® & News

Nearby

Air Quality

  Air Quality AQ Index Pollutant
Not available.

Snow Depth

Station Depth Elevation

Earthquake Activity

City Distance Mag. Time & Date
Minimum magnitude displayed is 2.5.

Coastal Water Temperatures

Place Temperature

Stations

Nearby Weather Stations

Station Location Temp. Windchill Dew Point Humidity Wind Precip. Elev Updated Type